createdAt,value
2016-11-22T00:00:16.423Z,11.64
2016-11-22T00:01:31.313Z,11.7
2016-11-22T00:02:45.398Z,11.76
2016-11-22T00:03:59.855Z,11.83
2016-11-22T00:05:14.184Z,11.86
2016-11-22T00:06:28.680Z,11.88
2016-11-22T00:07:43.017Z,11.9
2016-11-22T00:08:57.197Z,11.91
2016-11-22T00:10:11.365Z,11.92
2016-11-22T00:11:26.356Z,11.92
2016-11-22T00:12:41.243Z,11.92
2016-11-22T00:13:55.615Z,11.91
2016-11-22T00:15:09.789Z,11.88
2016-11-22T00:16:24.459Z,11.84
2016-11-22T00:17:39.311Z,11.78
2016-11-22T00:18:53.459Z,11.73
2016-11-22T00:20:08.307Z,11.68
2016-11-22T00:21:22.733Z,11.6
2016-11-22T00:22:36.821Z,11.54
2016-11-22T00:23:51.273Z,11.5
2016-11-22T00:25:05.725Z,11.47
2016-11-22T00:26:20.744Z,11.43
2016-11-22T00:27:35.106Z,11.41
2016-11-22T00:28:49.936Z,11.41
2016-11-22T00:30:04.333Z,11.38
2016-11-22T00:31:18.930Z,11.33
2016-11-22T00:32:33.887Z,11.31
2016-11-22T00:33:47.947Z,11.27
2016-11-22T00:35:04.439Z,11.23
2016-11-22T00:36:19.182Z,11.21
2016-11-22T00:37:33.674Z,11.18
2016-11-22T00:38:48.434Z,11.18
2016-11-22T00:40:02.903Z,11.19
2016-11-22T00:41:17.669Z,11.18
2016-11-22T00:42:31.738Z,11.21
2016-11-22T00:43:46.695Z,11.2
2016-11-22T00:45:01.070Z,11.16
2016-11-22T00:46:15.711Z,11.12
2016-11-22T00:47:30.180Z,11.09
2016-11-22T00:48:44.672Z,11.08
2016-11-22T00:49:58.860Z,11.07
2016-11-22T00:51:13.619Z,11.08
2016-11-22T00:52:27.675Z,11.11
2016-11-22T00:53:42.034Z,11.14
2016-11-22T00:54:56.886Z,11.17
2016-11-22T00:56:11.103Z,11.21
2016-11-22T00:57:25.439Z,11.24
2016-11-22T00:58:39.943Z,11.27
2016-11-22T00:59:54.136Z,11.3
2016-11-22T01:01:09.420Z,11.33
2016-11-22T01:05:20.890Z,11.39
2016-11-22T01:06:35.324Z,11.39
2016-11-22T01:07:49.400Z,11.4
2016-11-22T01:09:03.748Z,11.41
2016-11-22T01:10:18.147Z,11.42
2016-11-22T01:11:32.303Z,11.42
2016-11-22T01:12:47.120Z,11.43
2016-11-22T01:14:01.223Z,11.43
2016-11-22T01:15:15.617Z,11.42
2016-11-22T01:16:29.768Z,11.42
2016-11-22T01:17:43.821Z,11.42
2016-11-22T01:18:58.299Z,11.41
2016-11-22T01:20:13.004Z,11.41
2016-11-22T01:21:27.355Z,11.39
2016-11-22T01:22:41.443Z,11.37
2016-11-22T01:23:55.823Z,11.35
2016-11-22T01:25:10.215Z,11.35
2016-11-22T01:26:24.367Z,11.34
2016-11-22T01:27:39.080Z,11.3
2016-11-22T01:28:53.153Z,11.26
2016-11-22T01:30:07.590Z,11.19
2016-11-22T01:31:22.722Z,11.18
2016-11-22T01:32:36.997Z,11.16
2016-11-22T01:33:51.932Z,11.16
2016-11-22T01:35:06.071Z,11.16
2016-11-22T01:36:20.208Z,11.16
2016-11-22T01:37:34.551Z,11.17
2016-11-22T01:38:49.133Z,11.17
2016-11-22T01:40:03.730Z,11.16
2016-11-22T01:41:17.837Z,11.16
2016-11-22T01:42:32.352Z,11.15
2016-11-22T01:43:46.525Z,11.15
2016-11-22T01:45:00.953Z,11.14
2016-11-22T01:46:15.226Z,11.14
2016-11-22T01:47:29.803Z,11.14
2016-11-22T01:48:43.867Z,11.15
2016-11-22T01:49:58.053Z,11.17
2016-11-22T01:51:12.419Z,11.18
2016-11-22T01:52:26.811Z,11.19
2016-11-22T01:53:43.770Z,11.2
2016-11-22T01:54:57.856Z,11.21
2016-11-22T01:56:11.956Z,11.19
2016-11-22T01:57:26.287Z,11.18
2016-11-22T01:58:40.585Z,11.17
2016-11-22T01:59:54.711Z,11.17
2016-11-22T02:01:09.731Z,11.16
2016-11-22T02:02:24.223Z,11.17
2016-11-22T02:03:38.885Z,11.15
2016-11-22T02:04:53.272Z,11.14
2016-11-22T02:06:07.690Z,11.12
2016-11-22T02:07:21.736Z,11.1
2016-11-22T02:08:36.076Z,11.09
2016-11-22T02:09:50.257Z,11.08
2016-11-22T02:11:04.563Z,11.07
2016-11-22T02:12:19.078Z,11.05
2016-11-22T02:13:33.353Z,11.04
2016-11-22T02:14:47.806Z,11.02
2016-11-22T02:16:01.913Z,11.01
2016-11-22T02:17:16.609Z,11
2016-11-22T02:18:30.657Z,10.96
2016-11-22T02:19:44.981Z,10.93
2016-11-22T02:20:59.015Z,10.89
2016-11-22T02:22:13.374Z,10.85
2016-11-22T02:23:27.647Z,10.82
2016-11-22T02:24:41.708Z,10.82
2016-11-22T02:25:56.445Z,10.83
2016-11-22T02:27:10.544Z,10.84
2016-11-22T02:28:24.833Z,10.85
2016-11-22T02:29:39.162Z,10.88
2016-11-22T02:30:53.275Z,10.89
2016-11-22T02:32:07.778Z,10.9
2016-11-22T02:33:22.111Z,10.89
2016-11-22T02:34:36.417Z,10.88
2016-11-22T02:35:51.049Z,10.85
2016-11-22T02:37:05.126Z,10.82
2016-11-22T02:38:19.170Z,10.79
2016-11-22T02:39:33.597Z,10.77
2016-11-22T02:40:48.004Z,10.75
2016-11-22T02:42:02.394Z,10.74
2016-11-22T02:43:16.600Z,10.73
2016-11-22T02:44:31.076Z,10.72
2016-11-22T02:45:45.481Z,10.69
2016-11-22T02:48:58.452Z,10.62
2016-11-22T02:50:12.484Z,10.61
2016-11-22T02:51:26.833Z,10.59
2016-11-22T02:52:40.904Z,10.58
2016-11-22T02:53:55.501Z,10.56
2016-11-22T02:55:09.646Z,10.58
2016-11-22T02:56:24.347Z,10.58
2016-11-22T02:57:39.085Z,10.58
2016-11-22T02:58:53.134Z,10.58
2016-11-22T03:00:07.341Z,10.58
2016-11-22T03:01:21.829Z,10.58
2016-11-22T03:02:36.812Z,10.56
2016-11-22T03:03:50.926Z,10.53
2016-11-22T03:05:05.229Z,10.54
2016-11-22T03:06:19.890Z,10.54
2016-11-22T03:07:34.013Z,10.51
2016-11-22T03:08:48.377Z,10.47
2016-11-22T03:10:03.103Z,10.46
2016-11-22T03:11:20.035Z,10.45
2016-11-22T03:12:34.324Z,10.45
2016-11-22T03:13:48.384Z,10.45
2016-11-22T03:15:02.679Z,10.45
2016-11-22T03:16:16.776Z,10.45
2016-11-22T03:17:31.495Z,10.44
2016-11-22T03:18:45.945Z,10.45
2016-11-22T03:20:00.421Z,10.41
2016-11-22T03:21:14.770Z,10.38
2016-11-22T03:22:28.815Z,10.37
2016-11-22T03:23:43.432Z,10.38
2016-11-22T03:24:57.569Z,10.4
2016-11-22T03:26:11.605Z,10.41
2016-11-22T03:27:25.940Z,10.41
2016-11-22T03:28:40.004Z,10.41
2016-11-22T03:29:54.369Z,10.42
2016-11-22T03:31:08.648Z,10.43
2016-11-22T03:32:22.699Z,10.43
2016-11-22T03:33:37.158Z,10.42
2016-11-22T03:34:51.249Z,10.39
2016-11-22T03:36:05.584Z,10.39
2016-11-22T03:37:19.679Z,10.38
2016-11-22T03:38:33.717Z,10.37
2016-11-22T03:39:48.683Z,10.38
2016-11-22T03:41:03.097Z,10.39
2016-11-22T03:42:17.398Z,10.4
2016-11-22T03:43:31.481Z,10.42
2016-11-22T03:44:45.576Z,10.44
2016-11-22T03:46:00.256Z,10.46
2016-11-22T03:47:14.568Z,10.47
2016-11-22T03:48:28.874Z,10.47
2016-11-22T03:49:43.276Z,10.47
2016-11-22T03:50:57.334Z,10.44
2016-11-22T03:52:14.674Z,10.44
2016-11-22T03:53:28.831Z,10.44
2016-11-22T03:54:43.441Z,10.43
2016-11-22T03:55:57.931Z,10.44
2016-11-22T03:57:11.976Z,10.46
2016-11-22T03:58:26.433Z,10.48
2016-11-22T03:59:40.550Z,10.51
2016-11-22T04:00:54.597Z,10.53
2016-11-22T04:02:09.323Z,10.55
2016-11-22T04:03:23.653Z,10.55
2016-11-22T04:04:37.987Z,10.56
2016-11-22T04:05:52.122Z,10.56
2016-11-22T04:07:06.157Z,10.53
2016-11-22T04:08:20.613Z,10.5
2016-11-22T04:09:34.663Z,10.47
2016-11-22T04:10:49.615Z,10.44
2016-11-22T04:12:04.087Z,10.45
2016-11-22T04:13:18.447Z,10.48
2016-11-22T04:14:32.731Z,10.5
2016-11-22T04:15:47.141Z,10.52
2016-11-22T04:17:01.565Z,10.52
2016-11-22T04:18:15.896Z,10.51
2016-11-22T04:19:30.079Z,10.49
2016-11-22T04:20:44.501Z,10.47
2016-11-22T04:21:58.637Z,10.43
2016-11-22T04:23:12.983Z,10.4
2016-11-22T04:27:24.598Z,10.29
2016-11-22T04:28:39.023Z,10.27
2016-11-22T04:29:55.346Z,10.27
2016-11-22T04:31:09.398Z,10.26
2016-11-22T04:32:23.808Z,10.27
2016-11-22T04:33:37.845Z,10.28
2016-11-22T04:34:52.508Z,10.3
2016-11-22T04:36:06.610Z,10.33
2016-11-22T04:37:21.038Z,10.36
2016-11-22T04:38:35.405Z,10.38
2016-11-22T04:39:49.862Z,10.41
2016-11-22T04:41:04.307Z,10.44
2016-11-22T04:42:18.449Z,10.46
2016-11-22T04:43:32.574Z,10.5
2016-11-22T04:44:47.183Z,10.52
2016-11-22T04:46:01.271Z,10.54
2016-11-22T04:47:15.577Z,10.55
2016-11-22T04:48:30.200Z,10.56
2016-11-22T04:49:44.326Z,10.59
2016-11-22T04:50:58.769Z,10.59
2016-11-22T04:52:13.330Z,10.62
2016-11-22T04:53:27.663Z,10.64
2016-11-22T04:54:41.942Z,10.64
2016-11-22T04:55:56.789Z,10.63
2016-11-22T04:57:11.850Z,10.62
2016-11-22T04:58:26.873Z,10.63
2016-11-22T04:59:42.600Z,10.59
2016-11-22T05:00:59.790Z,10.57
2016-11-22T05:02:24.331Z,10.57
2016-11-22T05:03:46.269Z,10.59
2016-11-22T05:05:09.972Z,10.6
2016-11-22T05:06:36.423Z,10.65
2016-11-22T05:07:58.945Z,10.67
2016-11-22T05:09:24.500Z,10.69
2016-11-22T05:10:48.530Z,10.7
2016-11-22T05:12:07.623Z,10.72
2016-11-22T05:13:44.821Z,10.76
2016-11-22T05:15:05.324Z,10.8
2016-11-22T05:16:24.232Z,10.84
2016-11-22T05:17:44.768Z,10.88
2016-11-22T05:19:05.965Z,10.93
2016-11-22T05:20:26.110Z,10.97
2016-11-22T05:21:43.436Z,11.02
2016-11-22T05:23:00.890Z,11.03
2016-11-22T05:24:21.966Z,11.04
2016-11-22T05:25:41.642Z,11.07
2016-11-22T05:27:01.174Z,11.1
2016-11-22T05:28:21.119Z,11.12
2016-11-22T05:29:42.518Z,11.13
2016-11-22T05:31:02.487Z,11.1
2016-11-22T05:32:21.715Z,11.08
2016-11-22T05:33:39.078Z,11.05
2016-11-22T05:35:00.401Z,11.01
2016-11-22T05:36:20.999Z,10.96
2016-11-22T05:37:39.447Z,10.94
2016-11-22T05:38:57.870Z,10.93
2016-11-22T05:40:16.945Z,10.94
2016-11-22T05:41:33.993Z,10.91
2016-11-22T05:42:50.924Z,10.89
2016-11-22T05:44:07.300Z,10.87
2016-11-22T05:45:25.646Z,10.85
2016-11-22T05:46:46.521Z,10.83
2016-11-22T05:48:18.330Z,10.81
2016-11-22T05:49:38.082Z,10.81
2016-11-22T05:50:58.003Z,10.77
2016-11-22T05:52:17.679Z,10.75
2016-11-22T05:53:36.738Z,10.75
2016-11-22T05:54:55.557Z,10.73
2016-11-22T05:56:12.795Z,10.74
2016-11-22T05:57:32.455Z,10.75
2016-11-22T05:58:49.081Z,10.76
2016-11-22T06:00:05.939Z,10.79
2016-11-22T06:01:26.217Z,10.79
2016-11-22T06:02:45.443Z,10.81
2016-11-22T06:04:05.044Z,10.83
2016-11-22T06:05:24.350Z,10.85
2016-11-22T06:06:43.654Z,10.88
2016-11-22T06:08:00.350Z,10.87
2016-11-22T06:09:17.959Z,10.87
2016-11-22T06:10:34.368Z,10.87
2016-11-22T06:11:49.456Z,10.88
2016-11-22T06:13:06.414Z,10.88
2016-11-22T06:14:23.020Z,10.87
2016-11-22T06:15:39.157Z,10.9
2016-11-22T06:16:57.447Z,10.91
2016-11-22T06:18:13.673Z,10.92
2016-11-22T06:19:33.687Z,10.93
2016-11-22T06:21:03.505Z,10.94
2016-11-22T06:22:21.379Z,10.91
2016-11-22T06:23:39.102Z,10.88
2016-11-22T06:24:54.320Z,10.85
2016-11-22T06:26:12.976Z,10.81
2016-11-22T06:27:30.685Z,10.8
2016-11-22T06:28:45.804Z,10.78
2016-11-22T06:30:01.641Z,10.77
2016-11-22T06:31:18.698Z,10.78
2016-11-22T06:32:33.664Z,10.76
2016-11-22T06:33:48.259Z,10.75
2016-11-22T06:35:02.889Z,10.71
2016-11-22T06:36:17.051Z,10.65
2016-11-22T06:37:31.326Z,10.61
2016-11-22T06:38:45.643Z,10.55
2016-11-22T06:40:00.027Z,10.52
2016-11-22T06:41:14.758Z,10.49
2016-11-22T06:42:29.991Z,10.48
2016-11-22T06:43:44.678Z,10.51
2016-11-22T06:44:59.522Z,10.55
2016-11-22T06:46:14.050Z,10.59
2016-11-22T06:47:29.063Z,10.64
2016-11-22T06:48:43.488Z,10.71
2016-11-22T06:49:58.529Z,10.78
2016-11-22T06:51:13.287Z,10.83
2016-11-22T06:52:27.516Z,10.87
2016-11-22T06:53:41.887Z,10.92
2016-11-22T06:54:56.963Z,10.97
2016-11-22T06:56:11.044Z,11
2016-11-22T06:57:25.412Z,11.06
2016-11-22T06:58:39.750Z,11.08
2016-11-22T06:59:54.131Z,11.1
2016-11-22T07:01:08.769Z,11.11
2016-11-22T07:02:22.901Z,11.09
2016-11-22T07:03:37.308Z,11.07
2016-11-22T07:04:51.639Z,11.04
2016-11-22T07:06:05.964Z,11.02
2016-11-22T07:07:20.042Z,11.01
2016-11-22T07:08:34.641Z,11
2016-11-22T07:09:51.366Z,11
2016-11-22T07:11:05.722Z,10.97
2016-11-22T07:12:20.368Z,10.94
2016-11-22T07:13:34.676Z,10.92
2016-11-22T07:14:48.946Z,10.89
2016-11-22T07:16:03.380Z,10.88
2016-11-22T07:17:17.621Z,10.85
2016-11-22T07:18:32.625Z,10.84
2016-11-22T07:19:47.092Z,10.85
2016-11-22T07:21:01.539Z,10.87
2016-11-22T07:22:16.163Z,10.89
2016-11-22T07:23:31.078Z,10.93
2016-11-22T07:24:46.088Z,10.93
2016-11-22T07:26:00.850Z,10.96
2016-11-22T07:27:30.305Z,10.96
2016-11-22T07:28:44.544Z,10.97
2016-11-22T07:29:59.150Z,10.96
2016-11-22T07:31:13.616Z,10.93
2016-11-22T07:32:27.889Z,10.95
2016-11-22T07:33:42.366Z,10.95
2016-11-22T07:34:57.090Z,10.99
2016-11-22T07:36:11.934Z,11
2016-11-22T07:37:26.252Z,11.02
2016-11-22T07:38:40.296Z,11.04
2016-11-22T07:39:54.442Z,11.05
2016-11-22T07:41:08.666Z,11.07
2016-11-22T07:42:23.632Z,11.07
2016-11-22T07:43:38.115Z,11.09
2016-11-22T07:44:52.420Z,11.1
2016-11-22T07:46:06.762Z,11.09
2016-11-22T07:47:21.215Z,11.1
2016-11-22T07:48:36.284Z,11.12
2016-11-22T07:49:50.773Z,11.13
2016-11-22T07:51:05.374Z,11.16
2016-11-22T07:52:20.021Z,11.19
2016-11-22T07:53:34.587Z,11.19
2016-11-22T07:54:48.981Z,11.22
2016-11-22T07:56:03.251Z,11.24
2016-11-22T07:57:17.805Z,11.22
2016-11-22T07:58:31.901Z,11.15
2016-11-22T07:59:46.178Z,11.13
2016-11-22T08:03:28.958Z,11.19
2016-11-22T08:04:43.507Z,11.23
2016-11-22T08:05:58.076Z,11.28
2016-11-22T08:07:12.818Z,11.31
2016-11-22T08:08:27.862Z,11.35
2016-11-22T08:09:42.757Z,11.36
2016-11-22T08:10:57.412Z,11.38
2016-11-22T08:12:11.728Z,11.39
2016-11-22T08:13:26.700Z,11.42
2016-11-22T08:14:41.504Z,11.43
2016-11-22T08:15:56.433Z,11.43
2016-11-22T08:17:11.384Z,11.46
2016-11-22T08:18:26.023Z,11.47
2016-11-22T08:19:40.609Z,11.5
2016-11-22T08:22:24.393Z,11.56
2016-11-22T08:23:38.717Z,11.59
2016-11-22T08:24:53.057Z,11.61
2016-11-22T08:26:08.559Z,11.63
2016-11-22T08:27:23.378Z,11.66
2016-11-22T08:28:40.124Z,11.69
2016-11-22T08:29:55.064Z,11.74
2016-11-22T08:31:09.460Z,11.77
2016-11-22T08:32:24.192Z,11.78
2016-11-22T08:33:53.470Z,11.81
2016-11-22T08:35:08.694Z,11.82
2016-11-22T08:36:23.677Z,11.85
2016-11-22T08:37:39.113Z,11.86
2016-11-22T08:38:54.092Z,11.88
2016-11-22T08:40:08.525Z,11.9
2016-11-22T08:46:49.928Z,12.02
2016-11-22T08:48:05.121Z,12.05
2016-11-22T08:49:19.953Z,12.08
2016-11-22T08:50:34.619Z,12.11
2016-11-22T08:51:49.299Z,12.13
2016-11-22T08:53:05.216Z,12.17
2016-11-22T08:54:19.579Z,12.19
2016-11-22T08:55:34.796Z,12.2
2016-11-22T08:56:49.457Z,12.25
2016-11-22T08:58:04.403Z,12.27
2016-11-22T08:59:18.700Z,12.31
2016-11-22T09:00:33.582Z,12.36
2016-11-22T09:01:48.510Z,12.41
2016-11-22T09:03:02.934Z,12.45
2016-11-22T09:04:17.491Z,12.47
2016-11-22T09:05:32.065Z,12.49
2016-11-22T09:06:47.113Z,12.5
2016-11-22T09:08:01.466Z,12.51
2016-11-22T09:09:15.896Z,12.53
2016-11-22T09:10:30.517Z,12.56
2016-11-22T09:15:16.313Z,12.58
2016-11-22T09:20:22.914Z,12.63
2016-11-22T09:21:56.695Z,12.63
2016-11-22T09:23:31.325Z,12.65
2016-11-22T09:25:04.897Z,12.66
2016-11-22T09:26:39.884Z,12.67
2016-11-22T09:28:13.348Z,12.69
2016-11-22T09:29:47.123Z,12.68
2016-11-22T09:31:20.901Z,12.65
2016-11-22T09:32:55.405Z,12.63
2016-11-22T09:34:48.238Z,12.59
2016-11-22T09:36:22.321Z,12.53
2016-11-22T09:37:56.434Z,12.49
2016-11-22T09:39:30.364Z,12.47
2016-11-22T09:41:04.002Z,12.49
2016-11-22T09:42:38.312Z,12.53
2016-11-22T09:44:12.472Z,12.6
2016-11-22T09:45:46.442Z,12.68
2016-11-22T09:47:47.548Z,12.81
2016-11-22T09:49:22.011Z,12.92
2016-11-22T09:50:56.026Z,13.01
2016-11-22T09:52:29.703Z,13.08
2016-11-22T09:54:03.229Z,13.16
2016-11-22T09:55:37.734Z,13.23
2016-11-22T09:57:11.573Z,13.26
2016-11-22T09:58:45.284Z,13.27
2016-11-22T10:00:18.814Z,13.29
2016-11-22T10:02:12.419Z,13.32
2016-11-22T10:03:50.651Z,13.35
2016-11-22T10:05:24.704Z,13.37
2016-11-22T10:06:58.671Z,13.4
2016-11-22T10:08:31.970Z,13.41
2016-11-22T10:10:06.049Z,13.43
2016-11-22T10:11:40.122Z,13.44
2016-11-22T10:13:33.164Z,13.38
2016-11-22T10:15:07.073Z,13.33
2016-11-22T10:16:40.814Z,13.26
2016-11-22T10:21:20.220Z,13.09
2016-11-22T10:22:53.887Z,13.08
2016-11-22T10:24:27.981Z,13.11
2016-11-22T10:26:02.147Z,13.17
2016-11-22T10:27:35.747Z,13.22
2016-11-22T10:29:10.352Z,13.3
2016-11-22T10:30:44.089Z,13.39
2016-11-22T10:32:17.861Z,13.43
2016-11-22T10:33:51.378Z,13.49
2016-11-22T10:35:25.434Z,13.53
2016-11-22T10:36:58.811Z,13.57
2016-11-22T10:38:32.414Z,13.62
2016-11-22T10:40:26.988Z,13.66
2016-11-22T10:41:57.033Z,13.69
2016-11-22T10:43:11.248Z,13.7
2016-11-22T10:49:47.889Z,13.82
2016-11-22T10:51:22.355Z,13.84
2016-11-22T10:52:56.409Z,13.88
2016-11-22T10:54:31.412Z,13.92
2016-11-22T10:56:04.938Z,13.96
2016-11-22T10:57:38.689Z,14
2016-11-22T10:59:12.903Z,14.07
2016-11-22T11:01:06.236Z,14.12
2016-11-22T11:02:39.700Z,14.16
2016-11-22T11:04:13.223Z,14.18
2016-11-22T11:05:46.508Z,14.21
2016-11-22T11:07:19.880Z,14.21
2016-11-22T11:08:54.229Z,14.22
2016-11-22T11:10:28.263Z,14.24
2016-11-22T11:12:02.250Z,14.25
2016-11-22T11:18:45.475Z,14.38
2016-11-22T11:20:19.240Z,14.4
2016-11-22T11:21:52.819Z,14.43
2016-11-22T11:23:26.759Z,14.45
2016-11-22T11:25:00.486Z,14.49
2016-11-22T11:26:34.636Z,14.53
2016-11-22T11:28:08.291Z,14.57
2016-11-22T11:30:01.232Z,14.62
2016-11-22T11:31:35.312Z,14.71
2016-11-22T11:33:09.534Z,14.78
2016-11-22T11:34:43.182Z,14.84
2016-11-22T11:36:16.727Z,14.87
2016-11-22T11:37:50.759Z,14.93
2016-11-22T11:39:19.420Z,14.98
2016-11-22T11:40:53.873Z,15.06
2016-11-22T11:42:27.499Z,15.12
2016-11-22T11:44:02.455Z,15.18
2016-11-22T11:45:36.764Z,15.21
2016-11-22T11:47:13.110Z,15.26
2016-11-22T11:48:46.911Z,15.31
2016-11-22T11:50:20.788Z,15.35
2016-11-22T11:51:54.412Z,15.39
2016-11-22T11:53:49.137Z,15.42
2016-11-22T11:55:23.030Z,15.44
2016-11-22T11:56:56.589Z,15.48
2016-11-22T11:58:30.392Z,15.51
2016-11-22T12:00:04.366Z,15.54
2016-11-22T12:01:38.779Z,15.56
2016-11-22T12:03:12.360Z,15.57
2016-11-22T12:05:07.532Z,15.54
2016-11-22T12:09:19.688Z,15.56
2016-11-22T12:10:53.394Z,15.56
2016-11-22T12:12:27.776Z,15.57
2016-11-22T12:13:56.211Z,15.6
2016-11-22T12:15:31.438Z,15.64
2016-11-22T12:17:05.702Z,15.66
2016-11-22T12:18:39.344Z,15.67
2016-11-22T12:20:12.826Z,15.7
2016-11-22T12:21:46.664Z,15.71
2016-11-22T12:23:21.525Z,15.72
2016-11-22T12:24:51.151Z,15.72
2016-11-22T12:26:05.923Z,15.75
2016-11-22T12:27:34.329Z,15.76
2016-11-22T12:29:08.500Z,15.75
2016-11-22T12:30:42.017Z,15.74
2016-11-22T12:32:16.041Z,15.75
2016-11-22T12:33:49.800Z,15.74
2016-11-22T12:35:43.385Z,15.68
2016-11-22T12:37:16.912Z,15.62
2016-11-22T12:38:51.086Z,15.6
2016-11-22T12:40:25.239Z,15.56
2016-11-22T12:41:59.890Z,15.56
2016-11-22T12:43:34.773Z,15.56
2016-11-22T12:45:03.469Z,15.6
2016-11-22T12:46:37.516Z,15.6
2016-11-22T12:48:11.198Z,15.59
2016-11-22T12:49:45.464Z,15.57
2016-11-22T12:51:19.050Z,15.54
2016-11-22T12:52:52.426Z,15.55
2016-11-22T12:54:26.191Z,15.55
2016-11-22T12:55:59.660Z,15.56
2016-11-22T12:57:33.590Z,15.56
2016-11-22T12:59:07.572Z,15.56
2016-11-22T13:00:41.133Z,15.55
2016-11-22T13:02:15.967Z,15.53
2016-11-22T13:03:44.663Z,15.46
2016-11-22T13:05:18.242Z,15.37
2016-11-22T13:06:52.351Z,15.33
2016-11-22T13:08:25.985Z,15.33
2016-11-22T13:09:59.837Z,15.36
2016-11-22T13:11:53.654Z,15.43
2016-11-22T13:13:27.170Z,15.53
2016-11-22T13:15:00.660Z,15.61
2016-11-22T13:16:34.638Z,15.72
2016-11-22T13:18:08.310Z,15.8
2016-11-22T13:19:42.113Z,15.82
2016-11-22T13:21:15.781Z,15.87
2016-11-22T13:22:44.945Z,15.93
2016-11-22T13:24:18.864Z,15.97
2016-11-22T13:25:54.793Z,16
2016-11-22T13:27:28.424Z,16.05
2016-11-22T13:29:02.321Z,16.06
2016-11-22T13:30:36.065Z,16.04
2016-11-22T13:32:10.634Z,16.05
2016-11-22T13:33:44.253Z,16.08
2016-11-22T13:35:45.467Z,16.15
2016-11-22T13:37:18.833Z,16.21
2016-11-22T13:38:52.982Z,16.24
2016-11-22T13:40:26.616Z,16.25
2016-11-22T13:42:00.080Z,16.26
2016-11-22T13:43:33.813Z,16.19
2016-11-22T13:45:08.692Z,16.1
2016-11-22T13:47:03.087Z,16.02
2016-11-22T13:48:36.475Z,15.92
2016-11-22T13:50:10.169Z,15.92
2016-11-22T13:51:44.587Z,15.91
2016-11-22T13:53:19.924Z,15.88
2016-11-22T13:54:53.636Z,15.87
2016-11-22T13:56:28.821Z,15.87
2016-11-22T13:58:03.046Z,15.88
2016-11-22T13:59:36.550Z,15.89
2016-11-22T14:01:29.616Z,15.91
2016-11-22T14:05:46.513Z,16.08
2016-11-22T14:07:37.984Z,16.14
2016-11-22T14:08:52.433Z,16.19
2016-11-22T14:10:26.104Z,16.24
2016-11-22T14:12:00.064Z,16.25
2016-11-22T14:13:33.933Z,16.22
2016-11-22T14:15:02.270Z,16.19
2016-11-22T14:16:31.418Z,16.15
2016-11-22T14:18:05.881Z,16.14
2016-11-22T14:19:40.083Z,16.15
2016-11-22T14:21:13.799Z,16.17
2016-11-22T14:22:48.428Z,16.22
2016-11-22T14:24:22.439Z,16.26
2016-11-22T14:25:55.962Z,16.3
2016-11-22T14:27:29.852Z,16.33
2016-11-22T14:29:23.397Z,16.37
2016-11-22T14:30:57.915Z,16.39
2016-11-22T14:32:32.599Z,16.42
2016-11-22T14:34:07.223Z,16.38
2016-11-22T14:37:17.346Z,16.32
2016-11-22T14:38:51.932Z,16.26
2016-11-22T14:40:26.133Z,16.23
2016-11-22T14:42:19.241Z,16.16
2016-11-22T14:43:53.391Z,16.06
2016-11-22T14:45:27.991Z,15.9
2016-11-22T14:47:03.108Z,15.75
2016-11-22T14:48:36.995Z,15.65
2016-11-22T14:50:10.798Z,15.57
2016-11-22T14:51:45.320Z,15.43
2016-11-22T14:53:18.954Z,15.33
2016-11-22T14:54:54.115Z,15.26
2016-11-22T14:57:14.607Z,15.18
2016-11-22T14:58:30.308Z,15.11
2016-11-22T15:00:24.028Z,15
2016-11-22T15:01:59.106Z,14.95
2016-11-22T15:03:33.001Z,14.94
2016-11-22T15:05:07.264Z,14.9
2016-11-22T15:06:43.509Z,14.85
2016-11-22T15:08:16.995Z,14.79
2016-11-22T15:09:51.143Z,14.77
2016-11-22T15:11:24.547Z,14.72
2016-11-22T15:12:58.522Z,14.69
2016-11-22T15:14:52.043Z,14.66
2016-11-22T15:18:08.203Z,14.75
2016-11-22T15:20:03.226Z,14.82
2016-11-22T15:21:34.027Z,14.87
2016-11-22T15:23:08.188Z,14.9
2016-11-22T15:24:42.803Z,14.92
2016-11-22T15:26:12.688Z,14.94
2016-11-22T15:27:47.051Z,14.94
2016-11-22T15:29:21.532Z,14.92
2016-11-22T15:30:55.607Z,14.88
2016-11-22T15:32:30.911Z,14.83
2016-11-22T15:34:05.817Z,14.8
2016-11-22T15:35:40.021Z,14.78
2016-11-22T15:37:35.460Z,14.76
2016-11-22T15:39:17.649Z,14.74
2016-11-22T15:40:52.152Z,14.74
2016-11-22T15:42:25.679Z,14.76
2016-11-22T15:44:19.028Z,14.81
2016-11-22T15:45:53.400Z,14.84
2016-11-22T15:47:23.688Z,14.91
2016-11-22T15:48:38.055Z,14.94
2016-11-22T15:50:31.265Z,14.99
2016-11-22T15:52:04.681Z,15.05
2016-11-22T15:53:39.427Z,15.07
2016-11-22T15:55:13.350Z,15.09
2016-11-22T15:56:46.787Z,15.08
2016-11-22T15:58:20.769Z,15.05
2016-11-22T15:59:54.971Z,15.06
2016-11-22T16:01:29.461Z,15.07
2016-11-22T16:03:03.089Z,15.08
2016-11-22T16:04:36.872Z,15.09
2016-11-22T16:06:11.522Z,15.08
2016-11-22T16:08:04.935Z,15.08
2016-11-22T16:09:38.630Z,15.07
2016-11-22T16:11:12.583Z,15.08
2016-11-22T16:12:46.520Z,15.07
2016-11-22T16:14:21.040Z,15.08
2016-11-22T16:15:55.552Z,15.09
2016-11-22T16:17:30.073Z,15.11
2016-11-22T16:19:04.333Z,15.1
2016-11-22T16:20:37.647Z,15.11
2016-11-22T16:22:11.815Z,15.13
2016-11-22T16:23:46.058Z,15.13
2016-11-22T16:25:40.035Z,15.11
2016-11-22T16:27:14.597Z,15.13
2016-11-22T16:28:48.487Z,15.13
2016-11-22T16:30:49.780Z,15.12
2016-11-22T16:32:24.514Z,15.12
2016-11-22T16:34:00.754Z,15.12
2016-11-22T16:35:49.840Z,15.12
2016-11-22T16:37:24.329Z,15.12
2016-11-22T16:39:17.711Z,15.11
2016-11-22T16:41:34.021Z,15.11
2016-11-22T16:45:19.278Z,15.08
2016-11-22T16:56:09.942Z,14.65
2016-11-22T16:58:04.565Z,14.51
2016-11-22T16:59:18.525Z,14.35
2016-11-22T17:00:52.695Z,14.25
2016-11-22T17:02:23.150Z,14.19
2016-11-22T17:04:24.995Z,14.19
2016-11-22T17:06:28.224Z,14.19
2016-11-22T17:08:02.173Z,14.13
2016-11-22T17:09:35.717Z,14.12
2016-11-22T17:11:09.173Z,14.14
2016-11-22T17:12:38.988Z,14.1
2016-11-22T17:14:12.900Z,14.11
2016-11-22T17:15:48.671Z,14.13
2016-11-22T17:17:22.435Z,14.14
2016-11-22T17:18:57.039Z,14.19
2016-11-22T17:20:31.063Z,14.23
2016-11-22T17:22:05.451Z,14.27
2016-11-22T17:23:40.416Z,14.28
2016-11-22T17:25:14.826Z,14.32
2016-11-22T17:27:10.237Z,14.34
2016-11-22T17:29:17.280Z,14.35
2016-11-22T17:30:51.584Z,14.37
2016-11-22T17:32:25.353Z,14.43
2016-11-22T17:34:00.015Z,14.49
2016-11-22T17:35:33.643Z,14.56
2016-11-22T17:37:07.974Z,14.64
2016-11-22T17:38:41.846Z,14.69
2016-11-22T17:40:15.876Z,14.75
2016-11-22T17:41:50.240Z,14.79
2016-11-22T17:43:41.922Z,14.83
2016-11-22T17:44:56.245Z,14.85
2016-11-22T17:46:29.936Z,14.85
2016-11-22T17:48:23.728Z,14.84
2016-11-22T17:50:24.925Z,14.8
2016-11-22T17:51:40.053Z,14.8
2016-11-22T17:53:34.943Z,14.8
2016-11-22T17:55:06.402Z,14.8
2016-11-22T17:56:41.370Z,14.81
2016-11-22T17:58:15.317Z,14.8
2016-11-22T17:59:49.928Z,14.77
2016-11-22T18:01:23.669Z,14.73
2016-11-22T18:02:57.639Z,14.69
2016-11-22T18:04:32.216Z,14.64
2016-11-22T18:06:05.948Z,14.56
2016-11-22T18:07:35.253Z,14.52
2016-11-22T18:09:10.259Z,14.5
2016-11-22T18:11:14.597Z,14.49
2016-11-22T18:12:49.030Z,14.48
2016-11-22T18:14:18.140Z,14.51
2016-11-22T18:16:13.900Z,14.55
2016-11-22T18:17:28.974Z,14.59
2016-11-22T18:19:23.024Z,14.66
2016-11-22T18:20:57.061Z,14.7
2016-11-22T18:22:33.329Z,14.76
2016-11-22T18:24:35.177Z,14.8
2016-11-22T18:26:09.106Z,14.83
2016-11-22T18:27:42.829Z,14.86
2016-11-22T18:29:18.623Z,14.89
2016-11-22T18:30:53.384Z,14.91
2016-11-22T18:32:27.793Z,14.92
2016-11-22T18:34:30.675Z,14.91
2016-11-22T18:36:05.310Z,14.87
2016-11-22T18:37:39.835Z,14.84
2016-11-22T18:39:14.397Z,14.83
2016-11-22T18:40:48.714Z,14.79
2016-11-22T18:42:22.883Z,14.74
2016-11-22T18:43:51.762Z,14.7
2016-11-22T18:45:25.890Z,14.67
2016-11-22T18:47:00.812Z,14.65
2016-11-22T18:48:35.457Z,14.62
2016-11-22T18:50:03.565Z,14.57
2016-11-22T18:53:11.400Z,14.52
2016-11-22T18:54:45.266Z,14.49
2016-11-22T18:56:20.603Z,14.48
2016-11-22T18:57:49.222Z,14.47
2016-11-22T18:59:24.209Z,14.45
2016-11-22T19:00:52.794Z,14.43
2016-11-22T19:02:27.825Z,14.46
2016-11-22T19:04:02.516Z,14.5
2016-11-22T19:07:07.037Z,14.58
2016-11-22T19:08:41.902Z,14.59
2016-11-22T19:10:11.924Z,14.62
2016-11-22T19:11:46.167Z,14.63
2016-11-22T19:13:20.944Z,14.63
2016-11-22T19:14:57.120Z,14.6
2016-11-22T19:16:50.648Z,14.57